sensor_id;sensor_type;location;lat;lon;timestamp;P1;durP1;ratioP1;P2;durP2;ratioP2
52272;SDS011;38227;50.942;4.016;2023-03-08T00:01:21;33.85;;;21.50;;
52272;SDS011;38227;50.942;4.016;2023-03-08T00:03:52;32.13;;;21.33;;
52272;SDS011;38227;50.942;4.016;2023-03-08T00:06:24;34.38;;;21.05;;
52272;SDS011;38227;50.942;4.016;2023-03-08T00:08:54;31.48;;;19.87;;
52272;SDS011;38227;50.942;4.016;2023-03-08T00:11:24;31.60;;;20.00;;
52272;SDS011;38227;50.942;4.016;2023-03-08T00:13:52;31.70;;;20.50;;
52272;SDS011;38227;50.942;4.016;2023-03-08T00:16:22;30.02;;;19.08;;
52272;SDS011;38227;50.942;4.016;2023-03-08T00:18:50;28.67;;;19.05;;
52272;SDS011;38227;50.942;4.016;2023-03-08T00:21:18;29.42;;;19.58;;
52272;SDS011;38227;50.942;4.016;2023-03-08T00:23:50;30.33;;;19.33;;
52272;SDS011;38227;50.942;4.016;2023-03-08T00:26:18;29.40;;;19.17;;
52272;SDS011;38227;50.942;4.016;2023-03-08T00:28:47;29.33;;;19.02;;
52272;SDS011;38227;50.942;4.016;2023-03-08T00:31:24;27.62;;;18.58;;
52272;SDS011;38227;50.942;4.016;2023-03-08T00:33:53;27.08;;;18.70;;
52272;SDS011;38227;50.942;4.016;2023-03-08T00:36:31;29.45;;;18.67;;
52272;SDS011;38227;50.942;4.016;2023-03-08T00:39:01;26.30;;;18.02;;
52272;SDS011;38227;50.942;4.016;2023-03-08T00:41:32;29.55;;;17.70;;
52272;SDS011;38227;50.942;4.016;2023-03-08T00:44:02;26.48;;;17.60;;
52272;SDS011;38227;50.942;4.016;2023-03-08T00:46:41;26.25;;;17.65;;
52272;SDS011;38227;50.942;4.016;2023-03-08T00:49:12;25.50;;;17.20;;
52272;SDS011;38227;50.942;4.016;2023-03-08T00:51:42;25.75;;;16.65;;
52272;SDS011;38227;50.942;4.016;2023-03-08T00:54:14;26.95;;;17.08;;
52272;SDS011;38227;50.942;4.016;2023-03-08T00:56:43;24.80;;;15.93;;
52272;SDS011;38227;50.942;4.016;2023-03-08T00:59:22;23.60;;;15.63;;
52272;SDS011;38227;50.942;4.016;2023-03-08T01:01:54;24.65;;;15.88;;
52272;SDS011;38227;50.942;4.016;2023-03-08T01:04:26;24.27;;;15.32;;
52272;SDS011;38227;50.942;4.016;2023-03-08T01:06:55;23.38;;;15.85;;
52272;SDS011;38227;50.942;4.016;2023-03-08T01:09:26;21.52;;;14.50;;
52272;SDS011;38227;50.942;4.016;2023-03-08T01:11:55;24.23;;;15.75;;
52272;SDS011;38227;50.942;4.016;2023-03-08T01:14:26;22.83;;;15.75;;
52272;SDS011;38227;50.942;4.016;2023-03-08T01:16:55;21.45;;;14.87;;
52272;SDS011;38227;50.942;4.016;2023-03-08T01:19:26;20.70;;;14.60;;
52272;SDS011;38227;50.942;4.016;2023-03-08T01:21:57;22.17;;;14.63;;
52272;SDS011;38227;50.942;4.016;2023-03-08T01:24:26;22.50;;;15.13;;
52272;SDS011;38227;50.942;4.016;2023-03-08T01:26:56;22.60;;;15.32;;
52272;SDS011;38227;50.942;4.016;2023-03-08T01:29:25;21.45;;;14.55;;
52272;SDS011;38227;50.942;4.016;2023-03-08T01:31:58;21.65;;;14.90;;
52272;SDS011;38227;50.942;4.016;2023-03-08T01:34:29;22.02;;;14.73;;
52272;SDS011;38227;50.942;4.016;2023-03-08T01:37:00;21.67;;;14.50;;
52272;SDS011;38227;50.942;4.016;2023-03-08T01:39:37;24.50;;;16.00;;
52272;SDS011;38227;50.942;4.016;2023-03-08T01:42:05;21.83;;;15.15;;
52272;SDS011;38227;50.942;4.016;2023-03-08T01:44:51;23.80;;;15.85;;
52272;SDS011;38227;50.942;4.016;2023-03-08T01:47:42;25.12;;;16.77;;
52272;SDS011;38227;50.942;4.016;2023-03-08T01:50:11;23.77;;;16.00;;
52272;SDS011;38227;50.942;4.016;2023-03-08T01:52:47;26.00;;;17.05;;
52272;SDS011;38227;50.942;4.016;2023-03-08T01:55:21;25.55;;;16.45;;
52272;SDS011;38227;50.942;4.016;2023-03-08T01:57:59;27.33;;;16.85;;
52272;SDS011;38227;50.942;4.016;2023-03-08T02:00:28;25.88;;;15.63;;
52272;SDS011;38227;50.942;4.016;2023-03-08T02:03:07;23.35;;;15.40;;
52272;SDS011;38227;50.942;4.016;2023-03-08T02:05:40;24.10;;;15.15;;
52272;SDS011;38227;50.942;4.016;2023-03-08T02:08:13;22.50;;;14.45;;
52272;SDS011;38227;50.942;4.016;2023-03-08T02:10:45;25.23;;;15.27;;
52272;SDS011;38227;50.942;4.016;2023-03-08T02:13:15;24.70;;;15.60;;
52272;SDS011;38227;50.942;4.016;2023-03-08T02:15:45;28.25;;;16.75;;
52272;SDS011;38227;50.942;4.016;2023-03-08T02:18:14;28.17;;;16.27;;
52272;SDS011;38227;50.942;4.016;2023-03-08T02:20:46;26.37;;;15.90;;
52272;SDS011;38227;50.942;4.016;2023-03-08T02:23:18;21.55;;;14.32;;
52272;SDS011;38227;50.942;4.016;2023-03-08T02:28:38;19.50;;;12.95;;
52272;SDS011;38227;50.942;4.016;2023-03-08T02:31:10;22.37;;;13.85;;
52272;SDS011;38227;50.942;4.016;2023-03-08T02:33:41;23.50;;;13.88;;
52272;SDS011;38227;50.942;4.016;2023-03-08T02:36:18;26.27;;;14.35;;
52272;SDS011;38227;50.942;4.016;2023-03-08T02:38:47;25.37;;;14.77;;
52272;SDS011;38227;50.942;4.016;2023-03-08T02:41:18;22.55;;;14.30;;
52272;SDS011;38227;50.942;4.016;2023-03-08T02:43:46;27.55;;;16.65;;
52272;SDS011;38227;50.942;4.016;2023-03-08T02:46:15;25.12;;;15.38;;
52272;SDS011;38227;50.942;4.016;2023-03-08T02:48:52;24.27;;;14.18;;
52272;SDS011;38227;50.942;4.016;2023-03-08T02:51:21;25.00;;;13.40;;
52272;SDS011;38227;50.942;4.016;2023-03-08T02:53:51;21.42;;;12.60;;
52272;SDS011;38227;50.942;4.016;2023-03-08T02:56:23;21.35;;;11.75;;
52272;SDS011;38227;50.942;4.016;2023-03-08T02:59:01;19.65;;;11.40;;
52272;SDS011;38227;50.942;4.016;2023-03-08T03:01:30;18.92;;;10.50;;
52272;SDS011;38227;50.942;4.016;2023-03-08T03:03:59;20.60;;;9.98;;
52272;SDS011;38227;50.942;4.016;2023-03-08T03:06:31;20.35;;;10.32;;
52272;SDS011;38227;50.942;4.016;2023-03-08T03:09:06;18.87;;;10.18;;
52272;SDS011;38227;50.942;4.016;2023-03-08T03:11:35;20.35;;;9.57;;
52272;SDS011;38227;50.942;4.016;2023-03-08T03:14:07;21.45;;;10.93;;
52272;SDS011;38227;50.942;4.016;2023-03-08T03:16:45;22.70;;;11.82;;
52272;SDS011;38227;50.942;4.016;2023-03-08T03:19:23;25.80;;;12.65;;
52272;SDS011;38227;50.942;4.016;2023-03-08T03:21:53;28.73;;;13.40;;
52272;SDS011;38227;50.942;4.016;2023-03-08T03:24:24;29.20;;;14.30;;
52272;SDS011;38227;50.942;4.016;2023-03-08T03:26:54;28.80;;;13.45;;
52272;SDS011;38227;50.942;4.016;2023-03-08T03:29:25;29.85;;;14.57;;
52272;SDS011;38227;50.942;4.016;2023-03-08T03:31:55;30.48;;;15.13;;
52272;SDS011;38227;50.942;4.016;2023-03-08T03:34:27;32.03;;;14.50;;
52272;SDS011;38227;50.942;4.016;2023-03-08T03:36:57;34.97;;;15.13;;
52272;SDS011;38227;50.942;4.016;2023-03-08T03:39:27;32.70;;;14.63;;
52272;SDS011;38227;50.942;4.016;2023-03-08T03:41:59;28.92;;;12.98;;
52272;SDS011;38227;50.942;4.016;2023-03-08T03:44:38;26.08;;;12.35;;
52272;SDS011;38227;50.942;4.016;2023-03-08T03:47:10;25.55;;;11.82;;
52272;SDS011;38227;50.942;4.016;2023-03-08T03:49:40;21.98;;;10.77;;
52272;SDS011;38227;50.942;4.016;2023-03-08T03:52:10;23.48;;;11.20;;
52272;SDS011;38227;50.942;4.016;2023-03-08T03:54:43;23.45;;;11.50;;
52272;SDS011;38227;50.942;4.016;2023-03-08T03:57:14;25.98;;;10.73;;
52272;SDS011;38227;50.942;4.016;2023-03-08T03:59:43;28.83;;;11.65;;
52272;SDS011;38227;50.942;4.016;2023-03-08T04:02:15;26.02;;;11.93;;
52272;SDS011;38227;50.942;4.016;2023-03-08T04:04:47;33.50;;;12.98;;
52272;SDS011;38227;50.942;4.016;2023-03-08T04:07:16;29.23;;;12.05;;
52272;SDS011;38227;50.942;4.016;2023-03-08T04:09:44;27.15;;;12.25;;
52272;SDS011;38227;50.942;4.016;2023-03-08T04:12:14;32.28;;;13.52;;
52272;SDS011;38227;50.942;4.016;2023-03-08T04:14:45;29.85;;;13.07;;
52272;SDS011;38227;50.942;4.016;2023-03-08T04:17:15;27.98;;;14.10;;
52272;SDS011;38227;50.942;4.016;2023-03-08T04:19:47;34.70;;;14.50;;
52272;SDS011;38227;50.942;4.016;2023-03-08T04:22:21;32.15;;;14.57;;
52272;SDS011;38227;50.942;4.016;2023-03-08T04:25:03;28.87;;;14.35;;
52272;SDS011;38227;50.942;4.016;2023-03-08T04:27:33;29.63;;;15.00;;
52272;SDS011;38227;50.942;4.016;2023-03-08T04:30:04;29.25;;;15.05;;
52272;SDS011;38227;50.942;4.016;2023-03-08T04:32:37;34.60;;;16.08;;
52272;SDS011;38227;50.942;4.016;2023-03-08T04:35:09;37.67;;;16.55;;
52272;SDS011;38227;50.942;4.016;2023-03-08T04:37:39;33.58;;;15.60;;
52272;SDS011;38227;50.942;4.016;2023-03-08T04:40:10;34.78;;;17.35;;
52272;SDS011;38227;50.942;4.016;2023-03-08T04:42:41;32.65;;;15.27;;
52272;SDS011;38227;50.942;4.016;2023-03-08T04:45:14;36.88;;;16.33;;
52272;SDS011;38227;50.942;4.016;2023-03-08T04:47:49;33.33;;;16.17;;
52272;SDS011;38227;50.942;4.016;2023-03-08T04:50:35;36.25;;;17.37;;
52272;SDS011;38227;50.942;4.016;2023-03-08T04:53:13;36.97;;;17.15;;
52272;SDS011;38227;50.942;4.016;2023-03-08T04:55:47;31.83;;;16.40;;
52272;SDS011;38227;50.942;4.016;2023-03-08T04:58:22;33.63;;;16.70;;
52272;SDS011;38227;50.942;4.016;2023-03-08T05:00:53;30.37;;;15.95;;
52272;SDS011;38227;50.942;4.016;2023-03-08T05:03:25;34.60;;;16.98;;
52272;SDS011;38227;50.942;4.016;2023-03-08T05:05:54;31.25;;;16.25;;
52272;SDS011;38227;50.942;4.016;2023-03-08T05:08:25;32.38;;;16.35;;
52272;SDS011;38227;50.942;4.016;2023-03-08T05:11:03;38.63;;;17.80;;
52272;SDS011;38227;50.942;4.016;2023-03-08T05:13:35;35.10;;;17.85;;
52272;SDS011;38227;50.942;4.016;2023-03-08T05:16:07;40.17;;;15.63;;
52272;SDS011;38227;50.942;4.016;2023-03-08T05:18:37;30.15;;;15.23;;
52272;SDS011;38227;50.942;4.016;2023-03-08T05:21:15;26.50;;;14.02;;
52272;SDS011;38227;50.942;4.016;2023-03-08T05:23:46;25.80;;;13.43;;
52272;SDS011;38227;50.942;4.016;2023-03-08T05:26:17;23.52;;;12.40;;
52272;SDS011;38227;50.942;4.016;2023-03-08T05:28:50;21.48;;;11.30;;
52272;SDS011;38227;50.942;4.016;2023-03-08T05:31:20;28.70;;;11.95;;
52272;SDS011;38227;50.942;4.016;2023-03-08T05:33:52;19.92;;;11.50;;
52272;SDS011;38227;50.942;4.016;2023-03-08T05:36:21;24.00;;;11.35;;
52272;SDS011;38227;50.942;4.016;2023-03-08T05:38:53;21.90;;;10.32;;
52272;SDS011;38227;50.942;4.016;2023-03-08T05:41:23;24.95;;;11.20;;
52272;SDS011;38227;50.942;4.016;2023-03-08T05:44:00;25.17;;;10.20;;
52272;SDS011;38227;50.942;4.016;2023-03-08T05:46:30;20.25;;;9.43;;
52272;SDS011;38227;50.942;4.016;2023-03-08T05:49:04;20.23;;;9.68;;
52272;SDS011;38227;50.942;4.016;2023-03-08T05:51:42;15.80;;;8.90;;
52272;SDS011;38227;50.942;4.016;2023-03-08T05:54:10;15.57;;;9.30;;
52272;SDS011;38227;50.942;4.016;2023-03-08T05:56:42;18.35;;;9.20;;
52272;SDS011;38227;50.942;4.016;2023-03-08T05:59:13;16.77;;;9.75;;
52272;SDS011;38227;50.942;4.016;2023-03-08T06:01:43;21.98;;;10.18;;
52272;SDS011;38227;50.942;4.016;2023-03-08T06:04:16;16.00;;;9.18;;
52272;SDS011;38227;50.942;4.016;2023-03-08T06:06:53;18.33;;;9.05;;
52272;SDS011;38227;50.942;4.016;2023-03-08T06:09:21;17.25;;;9.13;;
52272;SDS011;38227;50.942;4.016;2023-03-08T06:11:50;18.60;;;9.48;;
52272;SDS011;38227;50.942;4.016;2023-03-08T06:14:19;16.77;;;9.10;;
52272;SDS011;38227;50.942;4.016;2023-03-08T06:16:49;21.87;;;10.38;;
52272;SDS011;38227;50.942;4.016;2023-03-08T06:19:21;16.30;;;9.38;;
52272;SDS011;38227;50.942;4.016;2023-03-08T06:21:50;22.85;;;9.80;;
52272;SDS011;38227;50.942;4.016;2023-03-08T06:24:22;18.10;;;10.32;;
52272;SDS011;38227;50.942;4.016;2023-03-08T06:26:51;19.80;;;10.32;;
52272;SDS011;38227;50.942;4.016;2023-03-08T06:29:22;17.10;;;10.52;;
52272;SDS011;38227;50.942;4.016;2023-03-08T06:31:52;24.60;;;11.88;;
52272;SDS011;38227;50.942;4.016;2023-03-08T06:34:31;19.75;;;10.43;;
52272;SDS011;38227;50.942;4.016;2023-03-08T06:37:09;17.62;;;10.38;;
52272;SDS011;38227;50.942;4.016;2023-03-08T06:39:38;17.08;;;10.20;;
52272;SDS011;38227;50.942;4.016;2023-03-08T06:42:09;20.10;;;10.40;;
52272;SDS011;38227;50.942;4.016;2023-03-08T06:44:39;15.27;;;9.50;;
52272;SDS011;38227;50.942;4.016;2023-03-08T06:47:10;17.12;;;9.88;;
52272;SDS011;38227;50.942;4.016;2023-03-08T06:49:39;20.40;;;9.68;;
52272;SDS011;38227;50.942;4.016;2023-03-08T06:52:11;20.80;;;10.57;;
52272;SDS011;38227;50.942;4.016;2023-03-08T06:54:40;17.12;;;9.82;;
52272;SDS011;38227;50.942;4.016;2023-03-08T06:57:11;17.05;;;10.07;;
52272;SDS011;38227;50.942;4.016;2023-03-08T06:59:43;19.55;;;10.43;;
52272;SDS011;38227;50.942;4.016;2023-03-08T07:02:14;17.00;;;10.23;;
52272;SDS011;38227;50.942;4.016;2023-03-08T07:04:43;14.77;;;9.63;;
52272;SDS011;38227;50.942;4.016;2023-03-08T07:07:11;17.62;;;9.68;;
52272;SDS011;38227;50.942;4.016;2023-03-08T07:09:39;20.27;;;10.70;;
52272;SDS011;38227;50.942;4.016;2023-03-08T07:12:07;17.23;;;9.38;;
52272;SDS011;38227;50.942;4.016;2023-03-08T07:14:37;17.87;;;9.35;;
52272;SDS011;38227;50.942;4.016;2023-03-08T07:17:07;15.32;;;9.07;;
52272;SDS011;38227;50.942;4.016;2023-03-08T07:19:38;18.30;;;9.00;;
52272;SDS011;38227;50.942;4.016;2023-03-08T07:22:15;15.40;;;9.65;;
52272;SDS011;38227;50.942;4.016;2023-03-08T07:24:45;21.02;;;10.00;;
52272;SDS011;38227;50.942;4.016;2023-03-08T07:27:13;13.70;;;9.18;;
52272;SDS011;38227;50.942;4.016;2023-03-08T07:29:46;18.12;;;10.43;;
52272;SDS011;38227;50.942;4.016;2023-03-08T07:32:14;16.23;;;9.98;;
52272;SDS011;38227;50.942;4.016;2023-03-08T07:34:45;17.25;;;10.15;;
52272;SDS011;38227;50.942;4.016;2023-03-08T07:37:18;20.65;;;10.93;;
52272;SDS011;38227;50.942;4.016;2023-03-08T07:39:53;15.77;;;10.35;;
52272;SDS011;38227;50.942;4.016;2023-03-08T07:42:24;17.73;;;10.07;;
52272;SDS011;38227;50.942;4.016;2023-03-08T07:44:56;15.18;;;10.32;;
52272;SDS011;38227;50.942;4.016;2023-03-08T07:47:27;18.37;;;11.07;;
52272;SDS011;38227;50.942;4.016;2023-03-08T07:49:59;20.37;;;12.20;;
52272;SDS011;38227;50.942;4.016;2023-03-08T07:52:30;19.92;;;12.10;;
52272;SDS011;38227;50.942;4.016;2023-03-08T07:55:02;18.52;;;11.63;;
52272;SDS011;38227;50.942;4.016;2023-03-08T07:57:43;23.25;;;12.32;;
52272;SDS011;38227;50.942;4.016;2023-03-08T08:00:13;21.98;;;11.80;;
52272;SDS011;38227;50.942;4.016;2023-03-08T08:02:46;20.12;;;12.80;;
52272;SDS011;38227;50.942;4.016;2023-03-08T08:05:19;18.30;;;12.25;;
52272;SDS011;38227;50.942;4.016;2023-03-08T08:07:53;16.45;;;10.98;;
52272;SDS011;38227;50.942;4.016;2023-03-08T08:10:32;18.62;;;11.40;;
52272;SDS011;38227;50.942;4.016;2023-03-08T08:13:13;19.35;;;12.25;;
52272;SDS011;38227;50.942;4.016;2023-03-08T08:15:56;21.08;;;10.90;;
52272;SDS011;38227;50.942;4.016;2023-03-08T08:18:29;20.30;;;11.57;;
52272;SDS011;38227;50.942;4.016;2023-03-08T08:21:08;18.05;;;11.18;;
52272;SDS011;38227;50.942;4.016;2023-03-08T08:23:42;18.62;;;10.75;;
52272;SDS011;38227;50.942;4.016;2023-03-08T08:26:23;17.12;;;10.30;;
52272;SDS011;38227;50.942;4.016;2023-03-08T08:28:54;27.80;;;10.93;;
52272;SDS011;38227;50.942;4.016;2023-03-08T08:31:32;17.30;;;10.43;;
52272;SDS011;38227;50.942;4.016;2023-03-08T08:34:12;18.27;;;10.75;;
52272;SDS011;38227;50.942;4.016;2023-03-08T08:36:46;17.12;;;10.85;;
52272;SDS011;38227;50.942;4.016;2023-03-08T08:39:20;17.87;;;10.15;;
52272;SDS011;38227;50.942;4.016;2023-03-08T08:41:59;19.25;;;10.38;;
52272;SDS011;38227;50.942;4.016;2023-03-08T08:44:27;16.55;;;9.95;;
52272;SDS011;38227;50.942;4.016;2023-03-08T08:46:55;14.75;;;9.20;;
52272;SDS011;38227;50.942;4.016;2023-03-08T08:49:26;13.38;;;8.50;;
52272;SDS011;38227;50.942;4.016;2023-03-08T08:52:03;18.45;;;9.30;;
52272;SDS011;38227;50.942;4.016;2023-03-08T08:54:33;11.70;;;8.65;;
52272;SDS011;38227;50.942;4.016;2023-03-08T08:57:05;15.00;;;8.65;;
52272;SDS011;38227;50.942;4.016;2023-03-08T08:59:37;12.02;;;8.25;;
52272;SDS011;38227;50.942;4.016;2023-03-08T09:02:09;12.85;;;8.25;;
52272;SDS011;38227;50.942;4.016;2023-03-08T09:04:38;12.45;;;8.43;;
52272;SDS011;38227;50.942;4.016;2023-03-08T09:07:07;10.52;;;7.53;;
52272;SDS011;38227;50.942;4.016;2023-03-08T09:09:44;12.77;;;7.55;;
52272;SDS011;38227;50.942;4.016;2023-03-08T09:12:13;11.75;;;7.80;;
52272;SDS011;38227;50.942;4.016;2023-03-08T09:14:42;11.75;;;7.78;;
52272;SDS011;38227;50.942;4.016;2023-03-08T09:17:10;10.20;;;7.25;;
52272;SDS011;38227;50.942;4.016;2023-03-08T09:19:39;13.93;;;8.32;;
52272;SDS011;38227;50.942;4.016;2023-03-08T09:22:17;12.35;;;7.97;;
52272;SDS011;38227;50.942;4.016;2023-03-08T09:24:47;15.30;;;8.05;;
52272;SDS011;38227;50.942;4.016;2023-03-08T09:27:19;13.25;;;7.95;;
52272;SDS011;38227;50.942;4.016;2023-03-08T09:29:48;13.23;;;8.93;;
52272;SDS011;38227;50.942;4.016;2023-03-08T09:32:17;18.35;;;8.57;;
52272;SDS011;38227;50.942;4.016;2023-03-08T09:34:46;12.82;;;8.35;;
52272;SDS011;38227;50.942;4.016;2023-03-08T09:37:18;14.85;;;8.43;;
52272;SDS011;38227;50.942;4.016;2023-03-08T09:39:49;13.73;;;9.43;;
52272;SDS011;38227;50.942;4.016;2023-03-08T09:42:31;12.98;;;9.57;;
52272;SDS011;38227;50.942;4.016;2023-03-08T09:48:13;12.75;;;8.75;;
52272;SDS011;38227;50.942;4.016;2023-03-08T09:51:01;12.13;;;9.15;;
52272;SDS011;38227;50.942;4.016;2023-03-08T09:53:39;13.00;;;9.13;;
52272;SDS011;38227;50.942;4.016;2023-03-08T09:56:24;14.60;;;9.32;;
52272;SDS011;38227;50.942;4.016;2023-03-08T10:09:05;11.85;;;8.80;;
52272;SDS011;38227;50.942;4.016;2023-03-08T10:15:14;11.45;;;8.25;;
52272;SDS011;38227;50.942;4.016;2023-03-08T10:17:47;13.93;;;8.77;;
52272;SDS011;38227;50.942;4.016;2023-03-08T10:20:23;10.30;;;8.05;;
52272;SDS011;38227;50.942;4.016;2023-03-08T10:22:57;10.52;;;8.30;;
52272;SDS011;38227;50.942;4.016;2023-03-08T10:25:33;12.10;;;8.65;;
52272;SDS011;38227;50.942;4.016;2023-03-08T10:28:21;14.80;;;7.87;;
52272;SDS011;38227;50.942;4.016;2023-03-08T10:30:51;11.20;;;8.73;;
52272;SDS011;38227;50.942;4.016;2023-03-08T10:33:29;8.07;;;5.95;;
52272;SDS011;38227;50.942;4.016;2023-03-08T10:38:43;10.75;;;8.02;;
52272;SDS011;38227;50.942;4.016;2023-03-08T10:41:57;12.35;;;8.85;;
52272;SDS011;38227;50.942;4.016;2023-03-08T10:44:37;14.90;;;8.45;;
52272;SDS011;38227;50.942;4.016;2023-03-08T10:47:25;11.77;;;9.13;;
52272;SDS011;38227;50.942;4.016;2023-03-08T10:53:07;12.57;;;9.20;;
52272;SDS011;38227;50.942;4.016;2023-03-08T10:55:47;13.20;;;9.50;;
52272;SDS011;38227;50.942;4.016;2023-03-08T10:58:42;12.77;;;9.37;;
52272;SDS011;38227;50.942;4.016;2023-03-08T11:01:31;13.77;;;10.68;;
52272;SDS011;38227;50.942;4.016;2023-03-08T11:04:05;17.12;;;11.68;;
52272;SDS011;38227;50.942;4.016;2023-03-08T11:06:52;15.20;;;11.30;;
52272;SDS011;38227;50.942;4.016;2023-03-08T11:09:30;13.85;;;11.00;;
52272;SDS011;38227;50.942;4.016;2023-03-08T11:12:00;16.33;;;12.25;;
52272;SDS011;38227;50.942;4.016;2023-03-08T11:14:29;16.87;;;11.88;;
52272;SDS011;38227;50.942;4.016;2023-03-08T11:20:08;18.40;;;12.88;;
52272;SDS011;38227;50.942;4.016;2023-03-08T11:23:11;17.00;;;13.02;;
52272;SDS011;38227;50.942;4.016;2023-03-08T11:26:23;22.40;;;13.40;;
52272;SDS011;38227;50.942;4.016;2023-03-08T11:29:15;18.50;;;13.70;;
52272;SDS011;38227;50.942;4.016;2023-03-08T11:35:26;19.33;;;13.70;;
52272;SDS011;38227;50.942;4.016;2023-03-08T11:38:27;23.17;;;14.52;;
52272;SDS011;38227;50.942;4.016;2023-03-08T11:53:34;20.98;;;16.12;;
52272;SDS011;38227;50.942;4.016;2023-03-08T11:56:36;22.95;;;17.08;;
52272;SDS011;38227;50.942;4.016;2023-03-08T12:02:28;25.25;;;18.70;;
52272;SDS011;38227;50.942;4.016;2023-03-08T12:05:12;26.50;;;19.62;;
52272;SDS011;38227;50.942;4.016;2023-03-08T12:08:02;25.97;;;19.63;;
52272;SDS011;38227;50.942;4.016;2023-03-08T12:19:53;27.08;;;20.52;;
52272;SDS011;38227;50.942;4.016;2023-03-08T12:25:30;28.87;;;21.75;;
52272;SDS011;38227;50.942;4.016;2023-03-08T12:31:24;31.70;;;21.83;;
52272;SDS011;38227;50.942;4.016;2023-03-08T12:33:59;33.30;;;23.38;;
52272;SDS011;38227;50.942;4.016;2023-03-08T12:36:39;33.42;;;22.85;;
52272;SDS011;38227;50.942;4.016;2023-03-08T12:39:23;34.28;;;23.70;;
52272;SDS011;38227;50.942;4.016;2023-03-08T12:41:57;35.33;;;23.92;;
52272;SDS011;38227;50.942;4.016;2023-03-08T12:44:27;35.40;;;24.60;;
52272;SDS011;38227;50.942;4.016;2023-03-08T12:46:58;32.97;;;23.38;;
52272;SDS011;38227;50.942;4.016;2023-03-08T12:49:35;35.80;;;25.17;;
52272;SDS011;38227;50.942;4.016;2023-03-08T12:52:22;38.50;;;26.25;;
52272;SDS011;38227;50.942;4.016;2023-03-08T12:55:05;39.78;;;26.35;;
52272;SDS011;38227;50.942;4.016;2023-03-08T12:57:49;53.97;;;26.12;;
52272;SDS011;38227;50.942;4.016;2023-03-08T13:18:00;39.70;;;26.75;;
52272;SDS011;38227;50.942;4.016;2023-03-08T13:24:05;43.63;;;29.07;;
52272;SDS011;38227;50.942;4.016;2023-03-08T13:27:15;46.03;;;27.98;;
52272;SDS011;38227;50.942;4.016;2023-03-08T13:30:23;42.67;;;27.52;;
52272;SDS011;38227;50.942;4.016;2023-03-08T13:33:00;44.70;;;29.00;;
52272;SDS011;38227;50.942;4.016;2023-03-08T13:35:38;41.42;;;28.50;;
52272;SDS011;38227;50.942;4.016;2023-03-08T13:38:15;42.97;;;29.60;;
52272;SDS011;38227;50.942;4.016;2023-03-08T13:40:53;43.72;;;29.00;;
52272;SDS011;38227;50.942;4.016;2023-03-08T13:43:24;42.83;;;29.35;;
52272;SDS011;38227;50.942;4.016;2023-03-08T13:46:09;43.53;;;29.05;;
52272;SDS011;38227;50.942;4.016;2023-03-08T13:48:42;42.38;;;29.65;;
52272;SDS011;38227;50.942;4.016;2023-03-08T13:51:15;42.60;;;28.17;;
52272;SDS011;38227;50.942;4.016;2023-03-08T13:53:44;46.15;;;29.83;;
52272;SDS011;38227;50.942;4.016;2023-03-08T13:56:19;46.47;;;30.73;;
52272;SDS011;38227;50.942;4.016;2023-03-08T13:58:50;49.05;;;31.30;;
52272;SDS011;38227;50.942;4.016;2023-03-08T14:01:24;53.38;;;31.30;;
52272;SDS011;38227;50.942;4.016;2023-03-08T14:03:53;54.70;;;32.55;;
52272;SDS011;38227;50.942;4.016;2023-03-08T14:06:29;53.20;;;30.52;;
52272;SDS011;38227;50.942;4.016;2023-03-08T14:08:58;55.63;;;32.72;;
52272;SDS011;38227;50.942;4.016;2023-03-08T14:11:30;57.13;;;33.85;;
52272;SDS011;38227;50.942;4.016;2023-03-08T14:14:04;54.40;;;30.95;;
52272;SDS011;38227;50.942;4.016;2023-03-08T14:16:38;54.95;;;33.13;;
52272;SDS011;38227;50.942;4.016;2023-03-08T14:22:10;50.35;;;30.98;;
52272;SDS011;38227;50.942;4.016;2023-03-08T14:24:47;50.80;;;31.92;;
52272;SDS011;38227;50.942;4.016;2023-03-08T14:32:37;50.63;;;33.15;;
52272;SDS011;38227;50.942;4.016;2023-03-08T14:35:20;51.60;;;33.78;;
52272;SDS011;38227;50.942;4.016;2023-03-08T14:37:52;54.30;;;34.33;;
52272;SDS011;38227;50.942;4.016;2023-03-08T14:40:30;57.00;;;35.42;;
52272;SDS011;38227;50.942;4.016;2023-03-08T14:43:02;58.17;;;32.95;;
52272;SDS011;38227;50.942;4.016;2023-03-08T14:48:38;52.33;;;30.95;;
52272;SDS011;38227;50.942;4.016;2023-03-08T14:54:32;59.63;;;34.67;;
52272;SDS011;38227;50.942;4.016;2023-03-08T15:00:06;61.65;;;34.58;;
52272;SDS011;38227;50.942;4.016;2023-03-08T15:02:39;56.70;;;34.60;;
52272;SDS011;38227;50.942;4.016;2023-03-08T15:05:11;66.12;;;35.83;;
52272;SDS011;38227;50.942;4.016;2023-03-08T15:07:42;61.20;;;34.75;;
52272;SDS011;38227;50.942;4.016;2023-03-08T15:10:23;56.90;;;33.63;;
52272;SDS011;38227;50.942;4.016;2023-03-08T15:12:58;63.03;;;35.58;;
52272;SDS011;38227;50.942;4.016;2023-03-08T15:15:36;63.92;;;35.80;;
52272;SDS011;38227;50.942;4.016;2023-03-08T15:18:05;65.12;;;35.20;;
52272;SDS011;38227;50.942;4.016;2023-03-08T15:20:36;61.47;;;35.15;;
52272;SDS011;38227;50.942;4.016;2023-03-08T15:23:10;56.45;;;32.45;;
52272;SDS011;38227;50.942;4.016;2023-03-08T15:25:42;55.03;;;32.33;;
52272;SDS011;38227;50.942;4.016;2023-03-08T15:28:13;61.83;;;34.65;;
52272;SDS011;38227;50.942;4.016;2023-03-08T15:30:44;64.68;;;35.65;;
52272;SDS011;38227;50.942;4.016;2023-03-08T15:33:11;61.40;;;35.63;;
52272;SDS011;38227;50.942;4.016;2023-03-08T15:35:41;57.95;;;35.03;;
52272;SDS011;38227;50.942;4.016;2023-03-08T15:38:13;59.08;;;34.20;;
52272;SDS011;38227;50.942;4.016;2023-03-08T15:40:44;58.58;;;33.00;;
52272;SDS011;38227;50.942;4.016;2023-03-08T15:43:21;59.70;;;34.20;;
52272;SDS011;38227;50.942;4.016;2023-03-08T15:45:50;57.83;;;34.47;;
52272;SDS011;38227;50.942;4.016;2023-03-08T15:48:22;54.60;;;32.20;;
52272;SDS011;38227;50.942;4.016;2023-03-08T15:50:54;64.37;;;34.80;;
52272;SDS011;38227;50.942;4.016;2023-03-08T15:53:27;57.95;;;33.78;;
52272;SDS011;38227;50.942;4.016;2023-03-08T15:55:56;64.15;;;35.60;;
52272;SDS011;38227;50.942;4.016;2023-03-08T15:58:29;60.38;;;35.17;;
52272;SDS011;38227;50.942;4.016;2023-03-08T16:01:03;56.88;;;34.10;;
52272;SDS011;38227;50.942;4.016;2023-03-08T16:03:31;68.40;;;37.33;;
52272;SDS011;38227;50.942;4.016;2023-03-08T16:06:01;67.25;;;36.90;;
52272;SDS011;38227;50.942;4.016;2023-03-08T16:08:34;61.40;;;34.75;;
52272;SDS011;38227;50.942;4.016;2023-03-08T16:11:10;62.65;;;36.33;;
52272;SDS011;38227;50.942;4.016;2023-03-08T16:13:42;58.40;;;34.15;;
52272;SDS011;38227;50.942;4.016;2023-03-08T16:16:19;64.80;;;36.38;;
52272;SDS011;38227;50.942;4.016;2023-03-08T16:18:47;64.28;;;36.80;;
52272;SDS011;38227;50.942;4.016;2023-03-08T16:21:17;65.50;;;36.30;;
52272;SDS011;38227;50.942;4.016;2023-03-08T16:23:47;71.07;;;38.45;;
52272;SDS011;38227;50.942;4.016;2023-03-08T16:26:17;74.37;;;40.33;;
52272;SDS011;38227;50.942;4.016;2023-03-08T16:28:55;76.85;;;41.47;;
52272;SDS011;38227;50.942;4.016;2023-03-08T16:31:32;66.55;;;36.88;;
52272;SDS011;38227;50.942;4.016;2023-03-08T16:34:02;64.70;;;35.90;;
52272;SDS011;38227;50.942;4.016;2023-03-08T16:36:34;66.65;;;35.42;;
52272;SDS011;38227;50.942;4.016;2023-03-08T16:39:05;71.87;;;37.95;;
52272;SDS011;38227;50.942;4.016;2023-03-08T16:41:38;67.22;;;37.13;;
52272;SDS011;38227;50.942;4.016;2023-03-08T16:44:15;62.78;;;34.40;;